LPFL/FLW METAR and TAF weather

Enter ICAO airport designator
Station Type Date Time Source
LPFL METAR 2019/02/16 18:00 UTC NOAA

LPFL 161800Z 33013KT 290V010 9999 FEW020 14/05 Q1026


Station Type Date Time Source
LPFL Decoded METAR 2019/02/16 18:00 UTC NOAA

Flores Acores , Portugal (LPFL) 39-27N 031-08W 29M
Feb 16, 2019 - 01:00 PM EST / 2019.02.16 1800 UTC
Wind: from the NNW (330 degrees) at 15 MPH (13 KT) (direction variable):0
Visibility: greater than 7 mile(s):0
Sky conditions: mostly clear
Temperature: 57 F (14 C)
Dew Point: 41 F (5 C)
Relative Humidity: 54%
Pressure (altimeter): 30.30 in. Hg (1026 hPa)
ob: LPFL 161800Z 33013KT 290V010 9999 FEW020 14/05 Q1026
cycle: 18

Station Type Date Time Source
LPFL TAF UTC NOAA

Error!


Example: see airport list